createdAt,value
2023-05-12T00:01:24.931Z,12.40
2023-05-12T00:03:53.894Z,12.40
2023-05-12T00:06:21.272Z,12.40
2023-05-12T00:08:48.153Z,12.30
2023-05-12T00:11:14.988Z,12.40
2023-05-12T00:13:41.782Z,12.40
2023-05-12T00:16:08.880Z,12.40
2023-05-12T00:18:35.934Z,12.40
2023-05-12T00:21:02.749Z,12.30
2023-05-12T00:23:29.488Z,12.30
2023-05-12T00:25:56.171Z,12.30
2023-05-12T00:28:22.872Z,12.30
2023-05-12T00:30:49.565Z,12.30
2023-05-12T00:33:17.196Z,12.30
2023-05-12T00:35:45.663Z,12.30
2023-05-12T00:38:13.055Z,12.30
2023-05-12T00:40:41.408Z,12.30
2023-05-12T00:43:08.668Z,12.30
2023-05-12T00:45:35.690Z,12.30
2023-05-12T00:48:03.671Z,12.30
2023-05-12T00:50:30.513Z,12.40
2023-05-12T00:52:58.495Z,12.30
2023-05-12T00:55:25.565Z,12.30
2023-05-12T00:57:52.882Z,12.30
2023-05-12T01:00:20.656Z,12.30
2023-05-12T01:02:48.022Z,12.30
2023-05-12T01:05:15.028Z,12.30
2023-05-12T01:07:42.337Z,12.30
2023-05-12T01:10:29.352Z,12.30
2023-05-12T01:12:56.794Z,12.30
2023-05-12T01:15:24.078Z,12.30
2023-05-12T01:17:56.242Z,12.30
2023-05-12T01:20:25.569Z,12.30
2023-05-12T01:22:53.166Z,12.30
2023-05-12T01:25:22.284Z,12.30
2023-05-12T01:27:49.586Z,12.30
2023-05-12T01:30:17.675Z,12.30
2023-05-12T01:32:45.179Z,12.30
2023-05-12T01:35:12.363Z,12.30
2023-05-12T01:37:45.694Z,12.30
2023-05-12T01:40:12.653Z,12.30
2023-05-12T01:42:40.642Z,12.30
2023-05-12T01:45:08.406Z,12.20
2023-05-12T01:47:38.084Z,12.30
2023-05-12T01:50:09.872Z,12.40
2023-05-12T01:52:37.416Z,12.30
2023-05-12T01:55:08.166Z,12.30
2023-05-12T01:57:42.272Z,12.30
2023-05-12T02:00:09.921Z,12.30
2023-05-12T02:02:45.896Z,12.30
2023-05-12T02:05:13.616Z,12.30
2023-05-12T02:07:42.558Z,12.30
2023-05-12T02:10:10.404Z,12.30
2023-05-12T02:12:37.130Z,12.30
2023-05-12T02:15:04.013Z,12.30
2023-05-12T02:17:32.596Z,12.30
2023-05-12T02:20:02.434Z,12.30
2023-05-12T02:22:29.182Z,12.40
2023-05-12T02:24:55.961Z,12.30
2023-05-12T02:27:23.072Z,12.30
2023-05-12T02:29:49.861Z,12.40
2023-05-12T02:32:17.600Z,12.40
2023-05-12T02:34:47.286Z,12.30
2023-05-12T02:37:14.745Z,12.30
2023-05-12T02:39:41.909Z,12.30
2023-05-12T02:42:08.649Z,12.30
2023-05-12T02:44:35.835Z,12.30
2023-05-12T02:47:02.723Z,12.30
2023-05-12T02:49:29.445Z,12.30
2023-05-12T02:51:56.476Z,12.30
2023-05-12T02:54:23.202Z,12.30
2023-05-12T02:56:49.964Z,12.30
2023-05-12T02:59:16.565Z,12.30
2023-05-12T03:01:43.382Z,12.30
2023-05-12T03:04:10.128Z,12.30
2023-05-12T03:06:37.183Z,12.30
2023-05-12T03:09:04.230Z,12.30
2023-05-12T03:11:30.946Z,12.30
2023-05-12T03:13:57.835Z,12.30
2023-05-12T03:16:24.533Z,12.30
2023-05-12T03:18:51.459Z,12.30
2023-05-12T03:21:18.198Z,12.30
2023-05-12T03:23:44.846Z,12.30
2023-05-12T03:26:11.532Z,12.30
2023-05-12T03:28:38.613Z,12.20
2023-05-12T03:31:05.499Z,12.20
2023-05-12T03:33:32.292Z,12.10
2023-05-12T03:35:59.675Z,12.10
2023-05-12T03:38:26.474Z,12.10
2023-05-12T03:41:02.811Z,12.00
2023-05-12T03:43:29.576Z,12.00
2023-05-12T03:45:57.213Z,12.00
2023-05-12T03:48:23.997Z,11.90
2023-05-12T03:50:50.712Z,11.90
2023-05-12T03:53:17.409Z,11.90
2023-05-12T03:55:44.150Z,12.00
2023-05-12T03:58:10.943Z,12.00
2023-05-12T04:00:38.896Z,11.90
2023-05-12T04:03:06.922Z,12.00
2023-05-12T04:05:33.642Z,11.90
2023-05-12T04:08:00.565Z,11.90
2023-05-12T04:10:27.256Z,11.90
2023-05-12T04:12:54.579Z,12.00
2023-05-12T04:15:21.609Z,12.00
2023-05-12T04:17:48.486Z,12.10
2023-05-12T04:20:15.389Z,12.10
2023-05-12T04:22:42.208Z,12.10
2023-05-12T04:25:09.951Z,12.10
2023-05-12T04:27:37.323Z,12.10
2023-05-12T04:30:04.214Z,12.10
2023-05-12T04:32:35.380Z,12.10
2023-05-12T04:35:02.103Z,12.20
2023-05-12T04:37:29.389Z,12.20
2023-05-12T04:39:56.090Z,12.10
2023-05-12T04:42:22.901Z,12.10
2023-05-12T04:44:50.031Z,12.20
2023-05-12T04:47:16.656Z,12.20
2023-05-12T04:49:43.332Z,12.20
2023-05-12T04:52:10.184Z,12.20
2023-05-12T04:54:37.019Z,12.20
2023-05-12T04:57:03.717Z,12.20
2023-05-12T04:59:31.839Z,12.30
2023-05-12T05:01:58.626Z,12.30
2023-05-12T05:04:25.425Z,12.30
2023-05-12T05:06:52.107Z,12.40
2023-05-12T05:09:19.309Z,12.40
2023-05-12T05:11:46.112Z,12.40
2023-05-12T05:14:13.723Z,12.40
2023-05-12T05:16:40.491Z,12.50
2023-05-12T05:19:15.600Z,12.50
2023-05-12T05:21:50.861Z,12.50
2023-05-12T05:24:17.547Z,12.60
2023-05-12T05:26:44.581Z,12.60
2023-05-12T05:29:11.494Z,12.70
2023-05-12T05:31:38.798Z,12.60
2023-05-12T05:34:05.851Z,12.70
2023-05-12T05:36:32.663Z,12.60
2023-05-12T05:38:59.368Z,12.70
2023-05-12T05:41:26.196Z,12.80
2023-05-12T05:43:52.993Z,12.80
2023-05-12T05:46:19.758Z,12.80
2023-05-12T05:48:47.355Z,12.80
2023-05-12T05:51:15.409Z,12.90
2023-05-12T05:53:42.961Z,12.90
2023-05-12T05:56:10.310Z,13.00
2023-05-12T05:58:37.594Z,13.00
2023-05-12T06:01:05.294Z,13.00
2023-05-12T06:03:33.079Z,13.00
2023-05-12T06:05:59.910Z,13.00
2023-05-12T06:08:26.772Z,12.90
2023-05-12T06:10:54.612Z,13.00
2023-05-12T06:13:21.304Z,13.00
2023-05-12T06:15:48.133Z,13.10
2023-05-12T06:18:14.819Z,13.10
2023-05-12T06:20:42.566Z,13.30
2023-05-12T06:23:09.284Z,13.30
2023-05-12T06:25:35.980Z,13.40
2023-05-12T06:28:02.690Z,13.60
2023-05-12T06:30:29.478Z,13.70
2023-05-12T06:32:56.476Z,13.90
2023-05-12T06:35:23.195Z,14.30
2023-05-12T06:37:50.877Z,14.50
2023-05-12T06:40:17.720Z,14.70
2023-05-12T06:42:44.468Z,14.70
2023-05-12T06:45:12.973Z,14.70
2023-05-12T06:47:40.315Z,14.70
2023-05-12T06:50:10.337Z,14.70
2023-05-12T06:52:37.483Z,14.80
2023-05-12T06:55:04.639Z,14.70
2023-05-12T06:57:31.360Z,14.80
2023-05-12T06:59:58.196Z,14.70
2023-05-12T07:02:24.869Z,14.60
2023-05-12T07:04:51.533Z,14.60
2023-05-12T07:07:18.823Z,14.60
2023-05-12T07:09:46.009Z,14.60
2023-05-12T07:12:12.668Z,14.60
2023-05-12T07:14:39.672Z,14.70
2023-05-12T07:17:06.386Z,14.70
2023-05-12T07:19:33.095Z,14.80
2023-05-12T07:21:59.852Z,14.80
2023-05-12T07:24:27.798Z,14.90
2023-05-12T07:26:54.476Z,14.90
2023-05-12T07:29:22.397Z,14.80
2023-05-12T07:31:49.227Z,14.90
2023-05-12T07:34:16.015Z,14.90
2023-05-12T07:36:42.648Z,14.80
2023-05-12T07:39:09.360Z,14.90
2023-05-12T07:41:36.079Z,14.90
2023-05-12T07:44:02.736Z,14.90
2023-05-12T07:46:29.421Z,14.90
2023-05-12T07:48:56.308Z,14.90
2023-05-12T07:51:23.055Z,14.90
2023-05-12T07:53:49.746Z,14.90
2023-05-12T07:56:16.595Z,14.90
2023-05-12T07:58:44.130Z,15.00
2023-05-12T08:01:11.997Z,15.10
2023-05-12T08:03:38.848Z,15.20
2023-05-12T08:06:07.291Z,15.20
2023-05-12T08:08:34.295Z,15.20
2023-05-12T08:11:01.032Z,15.20
2023-05-12T08:13:27.732Z,15.20
2023-05-12T08:15:54.365Z,15.20
2023-05-12T08:18:21.404Z,15.20
2023-05-12T08:20:49.062Z,15.20
2023-05-12T08:23:18.712Z,15.10
2023-05-12T08:25:45.407Z,15.10
2023-05-12T08:28:12.872Z,15.20
2023-05-12T08:30:39.845Z,15.20
2023-05-12T08:33:06.732Z,15.40
2023-05-12T08:35:33.477Z,15.50
2023-05-12T08:38:01.264Z,15.60
2023-05-12T08:40:29.854Z,15.80
2023-05-12T08:43:16.746Z,15.80
2023-05-12T08:45:44.049Z,16.00
2023-05-12T08:48:11.288Z,16.10
2023-05-12T08:50:38.493Z,16.00
2023-05-12T08:53:07.344Z,16.00
2023-05-12T08:55:35.130Z,16.10
2023-05-12T08:58:03.390Z,16.10
2023-05-12T09:00:31.346Z,16.20
2023-05-12T09:03:06.145Z,16.40
2023-05-12T09:05:33.268Z,16.60
2023-05-12T09:08:00.417Z,16.90
2023-05-12T09:10:34.856Z,17.10
2023-05-12T09:13:11.644Z,17.20
2023-05-12T09:15:39.623Z,17.10
2023-05-12T09:18:06.396Z,17.00
2023-05-12T09:20:33.877Z,17.20
2023-05-12T09:23:11.498Z,17.50
2023-05-12T09:25:38.245Z,18.00
2023-05-12T09:28:05.070Z,18.30
2023-05-12T09:30:35.308Z,18.80
2023-05-12T09:33:05.799Z,19.00
2023-05-12T09:35:32.490Z,19.20
2023-05-12T09:38:05.386Z,19.20
2023-05-12T09:40:32.937Z,18.90
2023-05-12T09:42:59.652Z,18.30
2023-05-12T09:45:26.433Z,17.70
2023-05-12T09:47:53.347Z,17.30
2023-05-12T09:50:22.752Z,17.00
2023-05-12T09:52:51.537Z,16.80
2023-05-12T09:55:18.385Z,16.60
2023-05-12T09:57:45.542Z,16.60
2023-05-12T10:00:33.183Z,16.40
2023-05-12T10:03:06.905Z,16.30
2023-05-12T10:05:34.038Z,16.20
2023-05-12T10:08:02.526Z,16.10
2023-05-12T10:10:29.785Z,16.10
2023-05-12T10:12:56.638Z,16.00
2023-05-12T10:15:24.982Z,16.00
2023-05-12T10:17:53.869Z,15.90
2023-05-12T10:20:21.458Z,15.90
2023-05-12T10:22:49.066Z,15.90
2023-05-12T10:25:16.829Z,16.00
2023-05-12T10:27:44.360Z,16.00
2023-05-12T10:30:11.510Z,16.00
2023-05-12T10:32:38.153Z,16.00
2023-05-12T10:35:12.493Z,16.00
2023-05-12T10:37:39.492Z,16.00
2023-05-12T10:40:07.044Z,16.00
2023-05-12T10:42:43.176Z,16.00
2023-05-12T10:45:19.853Z,16.10
2023-05-12T10:47:47.249Z,16.20
2023-05-12T10:50:14.073Z,16.30
2023-05-12T10:52:41.687Z,16.40
2023-05-12T10:55:11.659Z,16.40
2023-05-12T10:57:46.727Z,16.60
2023-05-12T11:00:14.718Z,16.70
2023-05-12T11:02:50.102Z,16.70
2023-05-12T11:05:17.987Z,16.70
2023-05-12T11:07:50.104Z,16.70
2023-05-12T11:10:17.848Z,16.60
2023-05-12T11:12:45.089Z,16.40
2023-05-12T11:15:12.243Z,16.30
2023-05-12T11:17:42.140Z,16.20
2023-05-12T11:20:11.890Z,16.20
2023-05-12T11:22:40.696Z,16.20
2023-05-12T11:25:11.245Z,16.30
2023-05-12T11:27:44.654Z,16.40
2023-05-12T11:30:11.349Z,16.80
2023-05-12T11:32:38.082Z,17.20
2023-05-12T11:35:12.674Z,18.00
2023-05-12T11:37:40.246Z,18.80
2023-05-12T11:40:16.994Z,19.40
2023-05-12T11:42:48.279Z,19.40
2023-05-12T11:45:22.116Z,19.50
2023-05-12T11:47:49.170Z,19.50
2023-05-12T11:50:25.244Z,19.30
2023-05-12T11:52:52.409Z,19.30
2023-05-12T11:55:23.722Z,19.70
2023-05-12T11:58:16.390Z,19.90
2023-05-12T12:00:43.091Z,20.30
2023-05-12T12:03:11.892Z,20.30
2023-05-12T12:05:39.725Z,20.20
2023-05-12T12:08:07.494Z,19.90
2023-05-12T12:10:34.236Z,19.50
2023-05-12T12:13:01.500Z,19.40
2023-05-12T12:15:28.856Z,19.20
2023-05-12T12:17:55.605Z,19.00
2023-05-12T12:20:24.602Z,18.80
2023-05-12T12:22:51.962Z,18.70
2023-05-12T12:25:19.750Z,18.70
2023-05-12T12:27:46.810Z,18.70
2023-05-12T12:30:14.825Z,18.80
2023-05-12T12:32:41.512Z,18.90
2023-05-12T12:35:08.884Z,19.40
2023-05-12T12:37:35.561Z,19.90
2023-05-12T12:40:07.949Z,19.80
2023-05-12T12:42:36.116Z,19.50
2023-05-12T12:45:08.385Z,19.20
2023-05-12T12:47:35.318Z,19.00
2023-05-12T12:50:01.926Z,18.80
2023-05-12T12:52:28.543Z,18.60
2023-05-12T12:54:55.262Z,18.40
2023-05-12T12:57:22.897Z,18.20
2023-05-12T12:59:50.247Z,18.10
2023-05-12T13:02:16.887Z,18.00
2023-05-12T13:04:43.731Z,17.90
2023-05-12T13:07:10.442Z,17.90
2023-05-12T13:09:37.289Z,17.80
2023-05-12T13:12:04.091Z,17.80
2023-05-12T13:14:30.712Z,17.90
2023-05-12T13:16:57.666Z,17.90
2023-05-12T13:19:24.358Z,17.90
2023-05-12T13:21:51.086Z,17.90
2023-05-12T13:24:17.851Z,18.00
2023-05-12T13:26:44.599Z,18.10
2023-05-12T13:29:11.521Z,18.30
2023-05-12T13:31:38.704Z,18.60
2023-05-12T13:34:05.390Z,18.90
2023-05-12T13:36:34.500Z,19.00
2023-05-12T13:39:02.764Z,19.10
2023-05-12T13:41:29.764Z,19.20
2023-05-12T13:43:56.818Z,19.30
2023-05-12T13:46:23.566Z,19.40
2023-05-12T13:48:52.509Z,19.50
2023-05-12T13:51:19.641Z,19.60
2023-05-12T13:53:46.508Z,19.70
2023-05-12T13:56:14.825Z,19.70
2023-05-12T13:58:41.432Z,19.60
2023-05-12T14:01:08.779Z,19.60
2023-05-12T14:03:37.001Z,19.60
2023-05-12T14:06:04.197Z,19.70
2023-05-12T14:08:31.256Z,19.60
2023-05-12T14:10:58.228Z,19.50
2023-05-12T14:13:26.036Z,19.40
2023-05-12T14:15:53.545Z,19.20
2023-05-12T14:18:20.937Z,19.00
2023-05-12T14:20:47.945Z,18.90
2023-05-12T14:23:14.615Z,18.90
2023-05-12T14:25:41.381Z,19.00
2023-05-12T14:28:08.213Z,19.10
2023-05-12T14:30:35.202Z,19.20
2023-05-12T14:33:02.587Z,19.50
2023-05-12T14:35:29.442Z,19.50
2023-05-12T14:37:56.649Z,19.80
2023-05-12T14:40:23.892Z,19.90
2023-05-12T14:42:50.668Z,20.00
2023-05-12T14:45:17.773Z,20.10
2023-05-12T14:47:44.769Z,20.30
2023-05-12T14:50:11.693Z,20.30
2023-05-12T14:52:38.542Z,20.20
2023-05-12T14:55:12.143Z,20.10
2023-05-12T14:57:42.253Z,20.00
2023-05-12T15:00:10.876Z,20.00
2023-05-12T15:02:38.620Z,20.00
2023-05-12T15:05:07.109Z,20.10
2023-05-12T15:07:33.825Z,20.10
2023-05-12T15:10:01.049Z,19.90
2023-05-12T15:12:28.079Z,19.80
2023-05-12T15:14:56.268Z,19.70
2023-05-12T15:17:23.358Z,19.70
2023-05-12T15:19:50.276Z,19.70
2023-05-12T15:22:16.983Z,19.60
2023-05-12T15:24:43.992Z,19.60
2023-05-12T15:27:10.681Z,19.70
2023-05-12T15:29:38.380Z,19.70
2023-05-12T15:32:05.485Z,19.60
2023-05-12T15:34:32.269Z,19.60
2023-05-12T15:36:59.035Z,19.60
2023-05-12T15:39:26.250Z,19.50
2023-05-12T15:41:53.873Z,19.40
2023-05-12T15:44:20.606Z,19.40
2023-05-12T15:46:47.501Z,19.40
2023-05-12T15:49:14.414Z,19.60
2023-05-12T15:51:41.224Z,19.80
2023-05-12T15:54:09.544Z,20.10
2023-05-12T15:56:37.283Z,20.20
2023-05-12T15:59:05.160Z,20.20
2023-05-12T16:01:32.074Z,20.20
2023-05-12T16:03:59.216Z,20.20
2023-05-12T16:06:26.005Z,20.30
2023-05-12T16:08:53.290Z,20.30
2023-05-12T16:11:20.109Z,20.40
2023-05-12T16:13:47.033Z,20.30
2023-05-12T16:16:14.115Z,20.10
2023-05-12T16:18:41.189Z,19.90
2023-05-12T16:21:09.556Z,19.70
2023-05-12T16:23:36.563Z,19.50
2023-05-12T16:26:03.273Z,19.40
2023-05-12T16:28:30.016Z,19.20
2023-05-12T16:30:56.709Z,19.00
2023-05-12T16:33:23.513Z,18.80
2023-05-12T16:35:50.706Z,18.60
2023-05-12T16:38:17.388Z,18.50
2023-05-12T16:40:44.388Z,18.40
2023-05-12T16:43:11.148Z,18.30
2023-05-12T16:45:38.039Z,18.30
2023-05-12T16:48:05.019Z,18.20
2023-05-12T16:50:32.366Z,18.30
2023-05-12T16:52:59.107Z,18.20
2023-05-12T16:55:25.842Z,18.10
2023-05-12T16:57:52.704Z,18.10
2023-05-12T17:00:19.551Z,18.00
2023-05-12T17:02:46.295Z,18.00
2023-05-12T17:05:13.068Z,18.00
2023-05-12T17:07:39.759Z,17.90
2023-05-12T17:10:06.721Z,17.80
2023-05-12T17:12:33.540Z,17.70
2023-05-12T17:15:07.500Z,17.70
2023-05-12T17:17:48.191Z,17.50
2023-05-12T17:20:14.990Z,17.50
2023-05-12T17:22:44.226Z,17.40
2023-05-12T17:25:11.096Z,17.30
2023-05-12T17:27:37.917Z,17.30
2023-05-12T17:30:04.890Z,17.20
2023-05-12T17:32:31.671Z,17.20
2023-05-12T17:34:58.416Z,17.10
2023-05-12T17:37:25.650Z,17.00
2023-05-12T17:39:52.647Z,17.00
2023-05-12T17:42:19.514Z,17.00
2023-05-12T17:44:46.681Z,16.90
2023-05-12T17:47:14.148Z,16.80
2023-05-12T17:49:41.105Z,16.70
2023-05-12T17:52:07.889Z,16.70
2023-05-12T17:54:34.773Z,16.60
2023-05-12T17:57:02.061Z,16.60
2023-05-12T17:59:28.778Z,16.60
2023-05-12T18:01:55.607Z,16.50
2023-05-12T18:04:23.154Z,16.50
2023-05-12T18:06:50.269Z,16.50
2023-05-12T18:09:17.774Z,16.50
2023-05-12T18:11:50.369Z,16.50
2023-05-12T18:14:17.752Z,16.40
2023-05-12T18:16:44.525Z,16.40
2023-05-12T18:19:11.383Z,16.40
2023-05-12T18:21:38.108Z,16.40
2023-05-12T18:24:05.007Z,16.40
2023-05-12T18:26:31.706Z,16.30
2023-05-12T18:28:59.335Z,16.20
2023-05-12T18:31:26.785Z,16.20
2023-05-12T18:33:53.449Z,16.20
2023-05-12T18:36:20.472Z,16.10
2023-05-12T18:38:47.384Z,16.00
2023-05-12T18:41:14.145Z,15.90
2023-05-12T18:43:42.957Z,15.90
2023-05-12T18:46:09.735Z,15.80
2023-05-12T18:48:36.381Z,15.80
2023-05-12T18:51:03.112Z,15.80
2023-05-12T18:53:29.857Z,15.70
2023-05-12T18:55:56.556Z,15.70
2023-05-12T18:58:23.320Z,15.70
2023-05-12T19:00:49.980Z,15.60
2023-05-12T19:03:16.626Z,15.60
2023-05-12T19:05:45.448Z,15.50
2023-05-12T19:08:12.632Z,15.50
2023-05-12T19:10:40.104Z,15.40
2023-05-12T19:13:07.127Z,15.40
2023-05-12T19:15:33.855Z,15.30
2023-05-12T19:18:00.518Z,15.30
2023-05-12T19:20:28.180Z,15.20
2023-05-12T19:22:54.984Z,15.10
2023-05-12T19:25:22.145Z,15.10
2023-05-12T19:27:49.163Z,15.00
2023-05-12T19:30:15.874Z,15.00
2023-05-12T19:32:45.643Z,15.00
2023-05-12T19:35:14.301Z,14.90
2023-05-12T19:37:41.115Z,14.90
2023-05-12T19:40:08.021Z,14.90
2023-05-12T19:42:36.085Z,14.90
2023-05-12T19:45:03.088Z,14.90
2023-05-12T19:47:30.148Z,14.90
2023-05-12T19:49:57.001Z,14.80
2023-05-12T19:52:24.637Z,14.80
2023-05-12T19:54:51.755Z,14.80
2023-05-12T19:57:18.782Z,14.80
2023-05-12T19:59:45.570Z,14.80
2023-05-12T20:02:13.530Z,14.70
2023-05-12T20:04:40.956Z,14.70
2023-05-12T20:07:07.685Z,14.80
2023-05-12T20:09:34.387Z,14.70
2023-05-12T20:12:01.163Z,14.70
2023-05-12T20:14:27.871Z,14.70
2023-05-12T20:16:55.204Z,14.60
2023-05-12T20:19:21.936Z,14.60
2023-05-12T20:21:48.584Z,14.50
2023-05-12T20:24:15.268Z,14.50
2023-05-12T20:26:41.988Z,14.40
2023-05-12T20:29:08.891Z,14.30
2023-05-12T20:31:35.685Z,14.20
2023-05-12T20:34:02.715Z,14.20
2023-05-12T20:36:29.336Z,14.10
2023-05-12T20:38:56.176Z,14.00
2023-05-12T20:41:23.511Z,13.90
2023-05-12T20:43:50.277Z,13.80
2023-05-12T20:46:17.154Z,13.70
2023-05-12T20:48:43.948Z,13.60
2023-05-12T20:51:11.582Z,13.50
2023-05-12T20:53:38.648Z,13.50
2023-05-12T20:56:08.173Z,13.30
2023-05-12T20:58:35.948Z,13.30
2023-05-12T21:01:04.205Z,13.20
2023-05-12T21:03:31.719Z,13.10
2023-05-12T21:05:58.430Z,13.00
2023-05-12T21:08:25.422Z,12.90
2023-05-12T21:10:52.643Z,12.80
2023-05-12T21:13:19.370Z,12.80
2023-05-12T21:15:46.037Z,12.70
2023-05-12T21:18:13.254Z,12.60
2023-05-12T21:20:40.020Z,12.50
2023-05-12T21:23:09.306Z,12.50
2023-05-12T21:25:35.996Z,12.40
2023-05-12T21:28:02.613Z,12.40
2023-05-12T21:30:29.361Z,12.30
2023-05-12T21:32:56.304Z,12.30
2023-05-12T21:35:23.037Z,12.20
2023-05-12T21:37:49.778Z,12.10
2023-05-12T21:40:16.592Z,12.10
2023-05-12T21:42:43.565Z,12.00
2023-05-12T21:45:10.399Z,11.90
2023-05-12T21:47:37.081Z,11.90
2023-05-12T21:50:04.583Z,11.80
2023-05-12T21:52:31.270Z,11.80
2023-05-12T21:54:57.950Z,11.70
2023-05-12T21:57:25.101Z,11.60
2023-05-12T21:59:51.945Z,11.60
2023-05-12T22:02:18.685Z,11.50
2023-05-12T22:04:45.409Z,11.50
2023-05-12T22:07:12.148Z,11.40
2023-05-12T22:09:38.891Z,11.40
2023-05-12T22:12:05.862Z,11.30
2023-05-12T22:14:32.591Z,11.30
2023-05-12T22:17:00.600Z,11.20
2023-05-12T22:19:27.583Z,11.10
2023-05-12T22:21:54.861Z,11.10
2023-05-12T22:24:21.513Z,11.10
2023-05-12T22:26:48.181Z,11.10
2023-05-12T22:29:14.829Z,11.00
2023-05-12T22:31:42.474Z,10.90
2023-05-12T22:34:09.404Z,10.90
2023-05-12T22:36:36.192Z,10.80
2023-05-12T22:39:03.753Z,10.80
2023-05-12T22:41:30.871Z,10.70
2023-05-12T22:43:57.718Z,10.70
2023-05-12T22:46:24.575Z,10.60
2023-05-12T22:48:52.751Z,10.60
2023-05-12T22:51:19.558Z,10.50
2023-05-12T22:53:46.271Z,10.50
2023-05-12T22:56:13.018Z,10.50
2023-05-12T22:58:40.010Z,10.40
2023-05-12T23:01:07.050Z,10.40
2023-05-12T23:03:33.866Z,10.30
2023-05-12T23:06:00.698Z,10.30
2023-05-12T23:08:27.425Z,10.20
2023-05-12T23:10:54.018Z,10.20
2023-05-12T23:13:20.801Z,10.20
2023-05-12T23:15:47.463Z,10.20
2023-05-12T23:18:14.123Z,10.10
2023-05-12T23:20:40.767Z,10.10
2023-05-12T23:23:07.368Z,10.00
2023-05-12T23:25:35.197Z,10.00
2023-05-12T23:28:01.993Z,9.90
2023-05-12T23:30:31.919Z,9.90
2023-05-12T23:33:01.078Z,9.90
2023-05-12T23:35:28.017Z,9.90
2023-05-12T23:37:54.653Z,9.90
2023-05-12T23:40:21.565Z,9.90
2023-05-12T23:42:48.534Z,10.00
2023-05-12T23:45:15.891Z,10.10
2023-05-12T23:47:43.201Z,10.10
2023-05-12T23:50:09.947Z,10.20
2023-05-12T23:52:36.607Z,10.20
2023-05-12T23:55:04.997Z,10.30
2023-05-12T23:57:31.744Z,10.30
2023-05-12T23:59:58.352Z,10.30
